createdAt,value
2018-05-13T00:01:13.922Z,7.20
2018-05-13T00:03:41.365Z,6.70
2018-05-13T00:06:08.817Z,6.33
2018-05-13T00:08:36.293Z,6.33
2018-05-13T00:11:03.748Z,5.90
2018-05-13T00:13:31.814Z,6.70
2018-05-13T00:15:59.314Z,6.40
2018-05-13T00:18:26.757Z,6.27
2018-05-13T00:26:53.037Z,6.70
2018-05-13T00:29:20.599Z,6.70
2018-05-13T00:31:48.171Z,6.37
2018-05-13T00:34:15.701Z,6.50
2018-05-13T00:36:43.215Z,6.37
2018-05-13T00:39:10.762Z,5.77
2018-05-13T00:41:38.306Z,6.77
2018-05-13T00:44:05.829Z,6.80
2018-05-13T00:46:33.348Z,5.93
2018-05-13T00:49:00.878Z,6.20
2018-05-13T00:51:28.437Z,5.97
2018-05-13T00:53:56.060Z,6.67
2018-05-13T00:56:23.573Z,6.50
2018-05-13T00:58:51.280Z,5.93
2018-05-13T01:01:18.836Z,6.43
2018-05-13T01:03:46.345Z,6.73
2018-05-13T01:06:13.928Z,6.73
2018-05-13T01:08:41.487Z,7.20
2018-05-13T01:11:09.020Z,6.63
2018-05-13T01:13:36.574Z,6.50
2018-05-13T01:16:04.103Z,6.20
2018-05-13T01:18:31.661Z,6.50
2018-05-13T01:21:00.057Z,6.93
2018-05-13T01:23:27.585Z,7.33
2018-05-13T01:25:55.120Z,7.03
2018-05-13T01:28:22.677Z,6.70
2018-05-13T01:30:50.205Z,7.70
2018-05-13T01:33:17.824Z,7.47
2018-05-13T01:35:45.441Z,7.03
2018-05-13T01:38:12.952Z,7.10
2018-05-13T01:40:40.503Z,7.27
2018-05-13T01:43:08.027Z,8.10
2018-05-13T01:45:35.633Z,5.93
2018-05-13T01:48:03.174Z,10.10
2018-05-13T01:50:30.725Z,9.80
2018-05-13T01:52:58.255Z,11.20
2018-05-13T01:55:25.806Z,12.07
2018-05-13T01:57:53.628Z,10.60
2018-05-13T02:00:21.215Z,11.73
2018-05-13T02:02:49.257Z,10.80
2018-05-13T02:05:16.799Z,10.90
2018-05-13T02:07:44.399Z,14.13
2018-05-13T02:10:11.940Z,11.87
2018-05-13T02:12:39.513Z,14.50
2018-05-13T02:15:07.174Z,14.77
2018-05-13T02:17:34.715Z,14.50
2018-05-13T02:20:02.249Z,12.57
2018-05-13T02:22:29.836Z,15.33
2018-05-13T02:24:57.374Z,11.57
2018-05-13T02:27:24.928Z,14.30
2018-05-13T02:29:52.500Z,11.33
2018-05-13T02:32:20.053Z,12.70
2018-05-13T02:34:47.637Z,12.43
2018-05-13T02:37:16.219Z,12.80
2018-05-13T02:39:43.885Z,10.93
2018-05-13T02:42:11.426Z,11.30
2018-05-13T02:44:38.977Z,12.80
2018-05-13T02:47:06.499Z,8.50
2018-05-13T02:49:34.035Z,11.30
2018-05-13T02:52:01.576Z,11.63
2018-05-13T02:54:29.106Z,11.73
2018-05-13T02:56:56.622Z,11.80
2018-05-13T02:59:24.297Z,9.30
2018-05-13T03:01:51.941Z,10.10
2018-05-13T03:04:19.575Z,12.27
2018-05-13T03:06:47.127Z,10.60
2018-05-13T03:09:14.666Z,9.63
2018-05-13T03:11:42.212Z,8.67
2018-05-13T03:14:09.760Z,10.13
2018-05-13T03:16:37.371Z,9.07
2018-05-13T03:19:05.037Z,8.97
2018-05-13T03:21:32.676Z,7.30
2018-05-13T03:24:00.259Z,7.80
2018-05-13T03:26:27.793Z,9.73
2018-05-13T03:28:55.362Z,8.43
2018-05-13T03:31:22.894Z,8.03
2018-05-13T03:33:50.456Z,9.10
2018-05-13T03:36:18.006Z,8.77
2018-05-13T03:38:45.517Z,8.67
2018-05-13T03:41:13.029Z,7.70
2018-05-13T03:43:40.591Z,6.67
2018-05-13T03:46:08.135Z,7.43
2018-05-13T03:48:35.734Z,6.73
2018-05-13T03:51:03.278Z,6.07
2018-05-13T03:53:30.831Z,6.03
2018-05-13T03:55:58.379Z,5.80
2018-05-13T03:58:25.973Z,5.03
2018-05-13T04:00:54.324Z,5.93
2018-05-13T04:03:21.848Z,5.90
2018-05-13T04:05:49.379Z,5.10
2018-05-13T04:11:39.651Z,6.60
2018-05-13T04:14:19.111Z,5.43
2018-05-13T04:16:46.633Z,5.70
2018-05-13T04:19:14.196Z,6.03
2018-05-13T04:21:41.729Z,5.20
2018-05-13T04:24:09.216Z,5.50
2018-05-13T04:26:36.782Z,5.57
2018-05-13T04:29:04.352Z,5.40
2018-05-13T04:31:31.864Z,5.27
2018-05-13T04:33:59.399Z,5.63
2018-05-13T04:36:26.952Z,5.03
2018-05-13T04:38:54.461Z,5.30
2018-05-13T04:41:21.979Z,5.83
2018-05-13T04:43:49.550Z,5.10
2018-05-13T04:46:17.107Z,5.83
2018-05-13T04:48:44.778Z,5.00
2018-05-13T04:51:12.321Z,5.33
2018-05-13T04:53:39.893Z,5.80
2018-05-13T04:56:07.430Z,5.10
2018-05-13T04:58:34.959Z,5.40
2018-05-13T05:01:02.592Z,5.77
2018-05-13T05:03:30.146Z,5.67
2018-05-13T05:05:57.677Z,5.67
2018-05-13T05:08:25.224Z,6.50
2018-05-13T05:10:52.749Z,5.23
2018-05-13T05:13:20.457Z,5.87
2018-05-13T05:15:48.021Z,5.50
2018-05-13T05:18:15.572Z,5.90
2018-05-13T05:20:43.114Z,5.43
2018-05-13T05:23:10.655Z,5.43
2018-05-13T05:25:38.329Z,5.87
2018-05-13T05:28:06.108Z,6.37
2018-05-13T05:30:33.691Z,5.80
2018-05-13T05:33:01.246Z,6.17
2018-05-13T05:35:28.791Z,6.57
2018-05-13T05:37:56.317Z,6.73
2018-05-13T05:40:23.839Z,6.23
2018-05-13T05:42:51.375Z,6.93
2018-05-13T05:45:18.901Z,6.80
2018-05-13T05:47:46.452Z,7.87
2018-05-13T05:50:14.018Z,7.67
2018-05-13T05:52:41.632Z,7.20
2018-05-13T05:55:09.179Z,7.10
2018-05-13T05:57:36.706Z,6.97
2018-05-13T06:00:04.316Z,5.43
2018-05-13T06:02:31.930Z,6.27
2018-05-13T06:04:59.492Z,6.97
2018-05-13T06:07:27.044Z,6.30
2018-05-13T06:09:54.600Z,4.33
2018-05-13T06:12:22.173Z,5.63
2018-05-13T06:14:49.940Z,6.47
2018-05-13T06:17:17.521Z,5.77
2018-05-13T06:19:45.109Z,5.00
2018-05-13T06:22:12.592Z,6.77
2018-05-13T06:24:40.128Z,4.83
2018-05-13T06:27:07.684Z,6.27
2018-05-13T06:29:35.264Z,6.67
2018-05-13T06:32:02.874Z,5.97
2018-05-13T06:34:30.700Z,6.60
2018-05-13T06:36:58.299Z,6.67
2018-05-13T06:39:25.824Z,6.80
2018-05-13T06:41:53.393Z,5.93
2018-05-13T06:44:21.085Z,6.20
2018-05-13T06:46:48.648Z,6.37
2018-05-13T06:49:16.208Z,7.03
2018-05-13T06:51:43.800Z,6.30
2018-05-13T06:54:11.345Z,4.87
2018-05-13T06:56:39.197Z,4.93
2018-05-13T06:59:06.727Z,5.27
2018-05-13T07:01:34.282Z,5.50
2018-05-13T07:04:01.863Z,5.77
2018-05-13T07:06:29.445Z,5.47
2018-05-13T07:08:56.961Z,5.87
2018-05-13T07:11:24.494Z,5.50
2018-05-13T07:13:52.040Z,5.40
2018-05-13T07:16:19.534Z,5.10
2018-05-13T07:18:47.068Z,5.57
2018-05-13T07:21:14.677Z,4.80
2018-05-13T07:23:42.224Z,4.43
2018-05-13T07:26:09.798Z,6.13
2018-05-13T07:28:37.435Z,5.43
2018-05-13T07:31:04.955Z,5.57
2018-05-13T07:33:32.467Z,5.93
2018-05-13T07:36:00.114Z,10.37
2018-05-13T07:38:27.664Z,5.83
2018-05-13T07:40:55.564Z,6.37
2018-05-13T07:43:23.172Z,6.50
2018-05-13T07:45:50.719Z,6.40
2018-05-13T07:48:18.250Z,7.20
2018-05-13T07:50:45.929Z,6.50
2018-05-13T07:53:13.474Z,6.70
2018-05-13T07:55:41.118Z,6.57
2018-05-13T07:58:08.789Z,7.33
2018-05-13T08:00:36.315Z,6.40
2018-05-13T08:03:04.005Z,7.40
2018-05-13T08:05:31.519Z,7.07
2018-05-13T08:07:59.128Z,7.80
2018-05-13T08:10:26.825Z,8.20
2018-05-13T08:12:54.379Z,7.53
2018-05-13T08:15:21.930Z,8.60
2018-05-13T08:17:49.560Z,8.13
2018-05-13T08:20:17.113Z,7.47
2018-05-13T08:22:44.776Z,7.67
2018-05-13T08:25:12.321Z,7.57
2018-05-13T08:27:39.917Z,7.83
2018-05-13T08:30:07.451Z,8.30
2018-05-13T08:32:35.033Z,8.10
2018-05-13T08:35:02.589Z,6.90
2018-05-13T08:37:30.247Z,8.10
2018-05-13T08:39:58.392Z,8.53
2018-05-13T08:42:25.937Z,7.17
2018-05-13T08:44:53.555Z,8.50
2018-05-13T08:47:21.101Z,8.03
2018-05-13T08:49:49.476Z,7.70
2018-05-13T08:52:17.067Z,5.60
2018-05-13T08:54:44.592Z,5.80
2018-05-13T08:57:12.368Z,6.37
2018-05-13T08:59:39.947Z,6.60
2018-05-13T09:02:07.485Z,7.10
2018-05-13T09:04:34.995Z,7.73
2018-05-13T09:07:02.501Z,8.10
2018-05-13T09:09:30.053Z,7.73
2018-05-13T09:11:57.642Z,6.70
2018-05-13T09:14:25.175Z,6.70
2018-05-13T09:16:52.726Z,8.30
2018-05-13T09:19:20.277Z,7.70
2018-05-13T09:21:47.802Z,8.00
2018-05-13T09:24:15.351Z,7.40
2018-05-13T09:26:43.006Z,7.70
2018-05-13T09:29:10.525Z,8.20
2018-05-13T09:31:38.216Z,7.03
2018-05-13T09:34:05.749Z,7.03
2018-05-13T09:36:33.421Z,8.00
2018-05-13T09:39:00.963Z,7.43
2018-05-13T09:41:28.495Z,8.93
2018-05-13T09:43:56.038Z,8.33
2018-05-13T09:46:23.636Z,7.13
2018-05-13T09:48:51.215Z,8.47
2018-05-13T09:51:18.781Z,8.50
2018-05-13T09:53:46.499Z,9.17
2018-05-13T09:56:14.056Z,9.87
2018-05-13T09:58:41.660Z,9.83
2018-05-13T10:01:09.221Z,9.17
2018-05-13T10:03:36.791Z,10.40
2018-05-13T10:06:04.401Z,7.80
2018-05-13T10:08:31.967Z,11.47
2018-05-13T10:10:59.491Z,12.67
2018-05-13T10:13:27.612Z,10.03
2018-05-13T10:15:55.203Z,13.00
2018-05-13T10:18:22.860Z,11.63
2018-05-13T10:20:50.668Z,11.87
2018-05-13T10:23:18.215Z,12.67
2018-05-13T10:25:45.838Z,13.67
2018-05-13T10:28:13.363Z,12.50
2018-05-13T10:30:41.445Z,12.10
2018-05-13T10:33:08.956Z,12.60
2018-05-13T10:35:36.509Z,12.57
2018-05-13T10:38:04.039Z,11.30
2018-05-13T10:40:31.583Z,13.23
2018-05-13T10:42:59.085Z,13.43
2018-05-13T10:45:26.634Z,13.23
2018-05-13T10:47:54.174Z,12.73
2018-05-13T10:50:21.761Z,15.00
2018-05-13T10:52:49.286Z,12.03
2018-05-13T10:55:16.857Z,13.20
2018-05-13T10:57:44.428Z,11.97
2018-05-13T11:00:11.986Z,10.77
2018-05-13T11:02:39.749Z,12.40
2018-05-13T11:05:07.488Z,12.93
2018-05-13T11:07:35.564Z,13.80
2018-05-13T11:10:03.152Z,13.60
2018-05-13T11:12:31.320Z,11.30
2018-05-13T11:14:58.904Z,12.43
2018-05-13T11:17:26.741Z,13.13
2018-05-13T11:19:54.301Z,13.17
2018-05-13T11:22:21.852Z,10.00
2018-05-13T11:24:49.399Z,12.07
2018-05-13T11:27:16.941Z,10.10
2018-05-13T11:29:44.476Z,13.67
2018-05-13T11:32:12.052Z,13.97
2018-05-13T11:34:39.584Z,12.20
2018-05-13T11:37:07.125Z,12.57
2018-05-13T11:39:34.676Z,12.07
2018-05-13T11:42:02.219Z,13.30
2018-05-13T11:44:29.847Z,11.60
2018-05-13T11:46:57.360Z,14.43
2018-05-13T11:49:24.888Z,10.53
2018-05-13T11:51:52.449Z,11.17
2018-05-13T11:54:20.677Z,12.73
2018-05-13T11:56:48.209Z,17.90
2018-05-13T11:59:15.727Z,13.10
2018-05-13T12:01:43.261Z,14.47
2018-05-13T12:04:10.790Z,17.50
2018-05-13T12:06:38.335Z,16.30
2018-05-13T12:09:05.914Z,16.63
2018-05-13T12:11:33.466Z,14.27
2018-05-13T12:14:01.000Z,12.73
2018-05-13T12:16:28.590Z,15.20
2018-05-13T12:18:56.141Z,14.33
2018-05-13T12:21:23.700Z,16.07
2018-05-13T12:23:51.277Z,13.90
2018-05-13T12:26:18.835Z,14.43
2018-05-13T12:28:46.385Z,14.87
2018-05-13T12:31:13.915Z,14.13
2018-05-13T12:33:41.456Z,13.83
2018-05-13T12:36:08.996Z,12.27
2018-05-13T12:38:36.521Z,10.43
2018-05-13T12:41:04.080Z,11.20
2018-05-13T12:43:31.613Z,10.20
2018-05-13T12:45:59.148Z,9.23
2018-05-13T12:48:26.671Z,10.60
2018-05-13T12:50:54.199Z,6.97
2018-05-13T12:53:21.779Z,11.90
2018-05-13T12:55:49.413Z,8.70
2018-05-13T12:58:16.983Z,10.20
2018-05-13T13:00:44.498Z,11.17
2018-05-13T13:03:12.040Z,12.10
2018-05-13T13:05:39.571Z,13.10
2018-05-13T13:08:07.091Z,11.80
2018-05-13T13:10:34.674Z,12.63
2018-05-13T13:13:02.400Z,11.50
2018-05-13T13:15:30.006Z,8.57
2018-05-13T13:17:58.103Z,12.13
2018-05-13T13:20:25.639Z,14.10
2018-05-13T13:22:53.209Z,12.60
2018-05-13T13:25:20.739Z,14.53
2018-05-13T13:27:48.270Z,14.23
2018-05-13T13:30:16.078Z,14.73
2018-05-13T13:32:43.685Z,14.90
2018-05-13T13:35:11.221Z,14.20
2018-05-13T13:37:38.757Z,12.63
2018-05-13T13:40:06.359Z,13.43
2018-05-13T13:42:34.324Z,13.63
2018-05-13T13:45:01.946Z,11.40
2018-05-13T13:47:34.005Z,12.77
2018-05-13T13:50:02.360Z,14.83
2018-05-13T13:52:29.983Z,13.73
2018-05-13T13:54:57.531Z,14.63
2018-05-13T13:57:25.201Z,12.87
2018-05-13T13:59:52.750Z,9.90
2018-05-13T14:02:20.303Z,13.70
2018-05-13T14:04:47.844Z,11.13
2018-05-13T14:07:15.384Z,12.03
2018-05-13T14:09:42.914Z,9.17
2018-05-13T14:12:10.506Z,10.03
2018-05-13T14:14:38.194Z,11.63
2018-05-13T14:17:05.736Z,10.43
2018-05-13T14:19:33.285Z,14.47
2018-05-13T14:22:00.853Z,9.97
2018-05-13T14:24:28.411Z,10.23
2018-05-13T14:26:55.998Z,12.47
2018-05-13T14:29:23.508Z,11.33
2018-05-13T14:31:51.084Z,11.50
2018-05-13T14:34:18.666Z,10.83
2018-05-13T14:36:46.235Z,11.90
2018-05-13T14:39:13.822Z,8.87
2018-05-13T14:41:41.864Z,10.97
2018-05-13T14:44:09.523Z,10.73
2018-05-13T14:46:37.121Z,10.07
2018-05-13T14:49:04.814Z,10.47
2018-05-13T14:51:32.434Z,10.33
2018-05-13T14:54:00.220Z,10.20
2018-05-13T14:56:27.845Z,9.77
2018-05-13T14:58:55.368Z,9.00
2018-05-13T15:01:23.070Z,10.23
2018-05-13T15:03:50.636Z,10.30
2018-05-13T15:06:18.179Z,10.77
2018-05-13T15:08:45.905Z,10.87
2018-05-13T15:11:13.426Z,11.90
2018-05-13T15:13:40.988Z,11.87
2018-05-13T15:16:10.203Z,10.73
2018-05-13T15:18:38.527Z,11.10
2018-05-13T15:21:06.224Z,10.97
2018-05-13T15:23:33.853Z,11.20
2018-05-13T15:26:01.418Z,12.63
2018-05-13T15:28:29.218Z,13.53
2018-05-13T15:30:57.401Z,12.20
2018-05-13T15:33:24.996Z,13.83
2018-05-13T15:35:52.547Z,12.07
2018-05-13T15:38:20.100Z,12.20
2018-05-13T15:40:47.618Z,11.80
2018-05-13T15:43:15.269Z,12.27
2018-05-13T15:45:42.762Z,10.27
2018-05-13T15:48:10.429Z,10.83
2018-05-13T15:50:39.049Z,10.43
2018-05-13T15:53:07.243Z,10.83
2018-05-13T15:55:34.806Z,11.17
2018-05-13T15:58:04.689Z,10.17
2018-05-13T16:00:32.336Z,11.30
2018-05-13T16:03:00.036Z,13.07
2018-05-13T16:05:27.614Z,12.13
2018-05-13T16:07:55.179Z,11.83
2018-05-13T16:10:22.726Z,11.40
2018-05-13T16:12:50.267Z,11.77
2018-05-13T16:15:17.812Z,10.63
2018-05-13T16:17:45.381Z,30.87
2018-05-13T16:20:13.035Z,18.10
2018-05-13T16:22:40.713Z,13.10
2018-05-13T16:25:08.290Z,16.23
2018-05-13T16:27:35.900Z,51.10
2018-05-13T16:30:03.532Z,10.07
2018-05-13T16:32:31.083Z,21.63
2018-05-13T16:34:58.654Z,101.83
2018-05-13T16:37:26.250Z,49.73
2018-05-13T16:39:53.816Z,71.17
2018-05-13T16:42:21.362Z,16.77
2018-05-13T16:44:48.940Z,211.90
2018-05-13T16:47:16.484Z,273.00
2018-05-13T16:49:44.030Z,221.40
2018-05-13T16:52:11.603Z,401.77
2018-05-13T16:54:39.190Z,285.17
2018-05-13T16:57:06.736Z,357.37
2018-05-13T16:59:34.278Z,324.20
2018-05-13T17:02:01.824Z,246.53
2018-05-13T17:04:30.259Z,75.37
2018-05-13T17:06:57.814Z,97.13
2018-05-13T17:09:25.478Z,191.43
2018-05-13T17:11:52.933Z,140.77
2018-05-13T17:14:20.538Z,33.33
2018-05-13T17:16:48.079Z,87.00
2018-05-13T17:19:15.628Z,185.93
2018-05-13T17:21:43.222Z,90.13
2018-05-13T17:24:10.843Z,22.53
2018-05-13T17:26:38.503Z,17.83
2018-05-13T17:29:06.136Z,9.30
2018-05-13T17:31:33.691Z,8.97
2018-05-13T17:34:01.377Z,49.90
2018-05-13T17:36:28.898Z,38.10
2018-05-13T17:38:56.444Z,82.17
2018-05-13T17:41:24.227Z,60.30
2018-05-13T17:43:52.946Z,24.77
2018-05-13T17:46:20.465Z,10.97
2018-05-13T17:48:48.171Z,41.13
2018-05-13T17:51:15.695Z,11.47
2018-05-13T17:53:43.322Z,9.30
2018-05-13T17:56:11.910Z,9.83
2018-05-13T17:58:43.346Z,19.20
2018-05-13T18:01:12.084Z,23.93
2018-05-13T18:03:39.880Z,18.87
2018-05-13T18:06:07.427Z,14.83
2018-05-13T18:08:35.164Z,9.53
2018-05-13T18:11:03.098Z,9.37
2018-05-13T18:13:30.752Z,10.63
2018-05-13T18:15:59.115Z,10.10
2018-05-13T18:18:26.664Z,10.33
2018-05-13T18:20:54.251Z,10.13
2018-05-13T18:23:22.788Z,20.43
2018-05-13T18:25:50.782Z,19.47
2018-05-13T18:28:18.380Z,9.97
2018-05-13T18:30:45.916Z,9.73
2018-05-13T18:33:13.482Z,10.10
2018-05-13T18:35:41.342Z,11.30
2018-05-13T18:38:08.932Z,10.03
2018-05-13T18:40:36.513Z,11.80
2018-05-13T18:43:04.063Z,10.83
2018-05-13T18:45:31.873Z,11.63
2018-05-13T18:47:59.411Z,11.07
2018-05-13T18:50:28.012Z,21.53
2018-05-13T18:52:55.732Z,15.97
2018-05-13T18:55:23.746Z,19.40
2018-05-13T18:57:51.733Z,10.87
2018-05-13T19:00:19.328Z,12.60
2018-05-13T19:02:47.000Z,13.23
2018-05-13T19:05:14.636Z,12.30
2018-05-13T19:07:42.324Z,12.63
2018-05-13T19:10:09.859Z,12.20
2018-05-13T19:12:37.379Z,12.77
2018-05-13T19:15:05.175Z,12.47
2018-05-13T19:17:32.761Z,12.87
2018-05-13T19:20:00.409Z,11.30
2018-05-13T19:22:31.577Z,10.13
2018-05-13T19:24:59.132Z,9.90
2018-05-13T19:27:28.063Z,9.40
2018-05-13T19:29:55.732Z,10.17
2018-05-13T19:32:24.385Z,10.30
2018-05-13T19:34:52.002Z,9.77
2018-05-13T19:37:19.579Z,10.73
2018-05-13T19:39:47.241Z,10.20
2018-05-13T19:42:16.154Z,10.90
2018-05-13T19:44:45.331Z,12.67
2018-05-13T19:47:13.454Z,12.87
2018-05-13T19:49:43.451Z,14.67
2018-05-13T19:52:11.663Z,14.50
2018-05-13T19:54:39.763Z,17.27
2018-05-13T19:57:29.337Z,18.57
2018-05-13T19:59:58.485Z,18.43
2018-05-13T20:02:28.501Z,19.80
2018-05-13T20:05:16.632Z,21.60
2018-05-13T20:10:33.333Z,19.93
2018-05-13T20:13:07.915Z,20.20
2018-05-13T20:15:36.578Z,19.07
2018-05-13T20:18:05.786Z,20.30
2018-05-13T20:20:37.128Z,20.53
2018-05-13T20:23:18.536Z,19.10
2018-05-13T20:25:49.891Z,20.23
2018-05-13T20:28:21.391Z,19.40
2018-05-13T20:30:53.866Z,17.53
2018-05-13T20:33:26.412Z,14.67
2018-05-13T20:38:41.654Z,12.30
2018-05-13T20:41:23.996Z,9.90
2018-05-13T20:43:57.641Z,11.50
2018-05-13T20:46:30.078Z,9.80
2018-05-13T20:48:58.419Z,9.77
2018-05-13T20:51:31.704Z,9.87
2018-05-13T20:54:04.082Z,10.10
2018-05-13T20:56:33.162Z,9.17
2018-05-13T20:59:03.333Z,10.77
2018-05-13T21:01:34.009Z,10.47
2018-05-13T21:04:05.312Z,10.33
2018-05-13T21:06:35.181Z,10.90
2018-05-13T21:09:09.026Z,11.13
2018-05-13T21:39:53.173Z,12.93
2018-05-13T21:42:33.491Z,12.40
2018-05-13T21:45:02.828Z,13.40
2018-05-13T21:47:30.797Z,12.07
2018-05-13T21:49:58.664Z,12.43
2018-05-13T21:52:27.188Z,12.57
2018-05-13T21:54:57.266Z,13.07
2018-05-13T21:57:26.446Z,12.97
2018-05-13T21:59:56.275Z,13.07
2018-05-13T22:02:49.476Z,13.47
2018-05-13T22:57:21.859Z,14.20
2018-05-13T23:00:09.601Z,13.63
